sensor_id;sensor_type;location;lat;lon;timestamp;temperature;humidity
12967;DHT22;6548;49.996;8.238;2022-08-25T00:00:28;23.10;99.90
12967;DHT22;6548;49.996;8.238;2022-08-25T00:02:54;22.80;99.90
12967;DHT22;6548;49.996;8.238;2022-08-25T00:05:20;22.00;99.90
12967;DHT22;6548;49.996;8.238;2022-08-25T00:07:46;21.90;99.90
12967;DHT22;6548;49.996;8.238;2022-08-25T00:10:11;21.10;99.90
12967;DHT22;6548;49.996;8.238;2022-08-25T00:12:38;21.70;99.90
12967;DHT22;6548;49.996;8.238;2022-08-25T00:15:04;22.00;99.90
12967;DHT22;6548;49.996;8.238;2022-08-25T00:17:30;21.50;99.90
12967;DHT22;6548;49.996;8.238;2022-08-25T00:19:56;21.50;99.90
12967;DHT22;6548;49.996;8.238;2022-08-25T00:22:21;21.40;99.90
12967;DHT22;6548;49.996;8.238;2022-08-25T00:24:47;21.50;99.90
12967;DHT22;6548;49.996;8.238;2022-08-25T00:27:13;22.60;99.90
12967;DHT22;6548;49.996;8.238;2022-08-25T00:29:39;22.90;99.90
12967;DHT22;6548;49.996;8.238;2022-08-25T00:32:04;21.30;99.90
12967;DHT22;6548;49.996;8.238;2022-08-25T00:34:34;21.30;99.90
12967;DHT22;6548;49.996;8.238;2022-08-25T00:37:02;21.50;99.90
12967;DHT22;6548;49.996;8.238;2022-08-25T00:39:28;21.30;99.90
12967;DHT22;6548;49.996;8.238;2022-08-25T00:41:55;21.30;99.90
12967;DHT22;6548;49.996;8.238;2022-08-25T00:44:22;22.40;99.90
12967;DHT22;6548;49.996;8.238;2022-08-25T00:46:53;22.20;99.90
12967;DHT22;6548;49.996;8.238;2022-08-25T00:52:21;21.20;99.90
12967;DHT22;6548;49.996;8.238;2022-08-25T00:55:06;21.10;99.90
12967;DHT22;6548;49.996;8.238;2022-08-25T00:57:37;21.10;99.90
12967;DHT22;6548;49.996;8.238;2022-08-25T01:00:21;21.00;99.90
12967;DHT22;6548;49.996;8.238;2022-08-25T01:02:47;21.00;99.90
12967;DHT22;6548;49.996;8.238;2022-08-25T01:05:13;21.10;99.90
12967;DHT22;6548;49.996;8.238;2022-08-25T01:07:40;21.00;99.90
12967;DHT22;6548;49.996;8.238;2022-08-25T01:10:07;21.00;99.90
12967;DHT22;6548;49.996;8.238;2022-08-25T01:12:34;20.90;99.90
12967;DHT22;6548;49.996;8.238;2022-08-25T01:15:03;21.80;99.90
12967;DHT22;6548;49.996;8.238;2022-08-25T01:17:47;20.80;99.90
12967;DHT22;6548;49.996;8.238;2022-08-25T01:20:14;20.70;99.90
12967;DHT22;6548;49.996;8.238;2022-08-25T01:22:40;20.70;99.90
12967;DHT22;6548;49.996;8.238;2022-08-25T01:27:43;20.60;99.90
12967;DHT22;6548;49.996;8.238;2022-08-25T01:30:09;20.60;99.90
12967;DHT22;6548;49.996;8.238;2022-08-25T01:32:35;20.60;99.90
12967;DHT22;6548;49.996;8.238;2022-08-25T01:35:00;20.60;99.90
12967;DHT22;6548;49.996;8.238;2022-08-25T01:37:26;20.60;99.90
12967;DHT22;6548;49.996;8.238;2022-08-25T01:39:51;21.70;99.90
12967;DHT22;6548;49.996;8.238;2022-08-25T01:42:22;21.00;99.90
12967;DHT22;6548;49.996;8.238;2022-08-25T01:44:49;20.40;99.90
12967;DHT22;6548;49.996;8.238;2022-08-25T01:47:15;20.40;99.90
12967;DHT22;6548;49.996;8.238;2022-08-25T01:49:41;20.40;99.90
12967;DHT22;6548;49.996;8.238;2022-08-25T01:52:15;20.40;99.90
12967;DHT22;6548;49.996;8.238;2022-08-25T01:54:41;20.40;99.90
12967;DHT22;6548;49.996;8.238;2022-08-25T01:57:07;20.30;99.90
12967;DHT22;6548;49.996;8.238;2022-08-25T01:59:33;20.30;99.90
12967;DHT22;6548;49.996;8.238;2022-08-25T02:01:59;20.20;99.90
12967;DHT22;6548;49.996;8.238;2022-08-25T02:04:24;20.20;99.90
12967;DHT22;6548;49.996;8.238;2022-08-25T02:06:51;20.10;99.90
12967;DHT22;6548;49.996;8.238;2022-08-25T02:09:16;20.60;99.90
12967;DHT22;6548;49.996;8.238;2022-08-25T02:11:44;20.10;99.90
12967;DHT22;6548;49.996;8.238;2022-08-25T02:14:12;20.40;99.90
12967;DHT22;6548;49.996;8.238;2022-08-25T02:16:40;20.10;99.90
12967;DHT22;6548;49.996;8.238;2022-08-25T02:19:09;20.30;99.90
12967;DHT22;6548;49.996;8.238;2022-08-25T02:21:35;20.10;99.90
12967;DHT22;6548;49.996;8.238;2022-08-25T02:24:02;20.10;99.90
12967;DHT22;6548;49.996;8.238;2022-08-25T02:26:29;20.00;99.90
12967;DHT22;6548;49.996;8.238;2022-08-25T02:28:55;20.00;99.90
12967;DHT22;6548;49.996;8.238;2022-08-25T02:31:23;20.00;99.90
12967;DHT22;6548;49.996;8.238;2022-08-25T02:33:50;20.00;99.90
12967;DHT22;6548;49.996;8.238;2022-08-25T02:36:16;19.90;99.90
12967;DHT22;6548;49.996;8.238;2022-08-25T02:38:42;20.50;99.90
12967;DHT22;6548;49.996;8.238;2022-08-25T02:41:11;19.90;99.90
12967;DHT22;6548;49.996;8.238;2022-08-25T02:43:39;20.30;99.90
12967;DHT22;6548;49.996;8.238;2022-08-25T02:46:05;20.10;99.90
12967;DHT22;6548;49.996;8.238;2022-08-25T02:48:30;19.90;99.90
12967;DHT22;6548;49.996;8.238;2022-08-25T02:50:59;21.20;99.90
12967;DHT22;6548;49.996;8.238;2022-08-25T02:53:25;19.90;99.90
12967;DHT22;6548;49.996;8.238;2022-08-25T02:55:51;19.80;99.90
12967;DHT22;6548;49.996;8.238;2022-08-25T02:58:17;20.90;99.90
12967;DHT22;6548;49.996;8.238;2022-08-25T03:00:43;19.70;99.90
12967;DHT22;6548;49.996;8.238;2022-08-25T03:03:10;21.00;99.90
12967;DHT22;6548;49.996;8.238;2022-08-25T03:05:36;21.00;99.90
12967;DHT22;6548;49.996;8.238;2022-08-25T03:08:02;20.00;99.90
12967;DHT22;6548;49.996;8.238;2022-08-25T03:10:28;19.70;99.90
12967;DHT22;6548;49.996;8.238;2022-08-25T03:12:54;19.60;99.90
12967;DHT22;6548;49.996;8.238;2022-08-25T03:15:20;19.50;99.90
12967;DHT22;6548;49.996;8.238;2022-08-25T03:17:46;19.50;99.90
12967;DHT22;6548;49.996;8.238;2022-08-25T03:20:15;20.40;99.90
12967;DHT22;6548;49.996;8.238;2022-08-25T03:22:41;19.50;99.90
12967;DHT22;6548;49.996;8.238;2022-08-25T03:25:07;19.50;99.90
12967;DHT22;6548;49.996;8.238;2022-08-25T03:27:51;19.50;99.90
12967;DHT22;6548;49.996;8.238;2022-08-25T03:30:18;19.40;99.90
12967;DHT22;6548;49.996;8.238;2022-08-25T03:32:43;19.40;99.90
12967;DHT22;6548;49.996;8.238;2022-08-25T03:35:09;19.50;99.90
12967;DHT22;6548;49.996;8.238;2022-08-25T03:37:36;19.50;99.90
12967;DHT22;6548;49.996;8.238;2022-08-25T03:40:04;19.50;99.90
12967;DHT22;6548;49.996;8.238;2022-08-25T03:42:30;19.40;99.90
12967;DHT22;6548;49.996;8.238;2022-08-25T03:44:56;20.20;99.90
12967;DHT22;6548;49.996;8.238;2022-08-25T03:47:22;19.40;99.90
12967;DHT22;6548;49.996;8.238;2022-08-25T03:49:50;20.00;99.90
12967;DHT22;6548;49.996;8.238;2022-08-25T03:52:16;20.40;99.90
12967;DHT22;6548;49.996;8.238;2022-08-25T03:54:43;19.20;99.90
12967;DHT22;6548;49.996;8.238;2022-08-25T03:57:09;19.10;99.90
12967;DHT22;6548;49.996;8.238;2022-08-25T03:59:34;19.20;99.90
12967;DHT22;6548;49.996;8.238;2022-08-25T04:02:03;19.10;99.90
12967;DHT22;6548;49.996;8.238;2022-08-25T04:04:29;19.50;99.90
12967;DHT22;6548;49.996;8.238;2022-08-25T04:06:55;19.00;99.90
12967;DHT22;6548;49.996;8.238;2022-08-25T04:09:22;19.10;99.90
12967;DHT22;6548;49.996;8.238;2022-08-25T04:11:47;20.10;99.90
12967;DHT22;6548;49.996;8.238;2022-08-25T04:14:14;19.10;99.90
12967;DHT22;6548;49.996;8.238;2022-08-25T04:16:39;19.00;99.90
12967;DHT22;6548;49.996;8.238;2022-08-25T04:19:06;19.00;99.90
12967;DHT22;6548;49.996;8.238;2022-08-25T04:21:35;19.00;99.90
12967;DHT22;6548;49.996;8.238;2022-08-25T04:24:01;19.40;99.90
12967;DHT22;6548;49.996;8.238;2022-08-25T04:26:30;18.90;99.90
12967;DHT22;6548;49.996;8.238;2022-08-25T04:28:58;18.90;99.90
12967;DHT22;6548;49.996;8.238;2022-08-25T04:31:25;19.10;99.90
12967;DHT22;6548;49.996;8.238;2022-08-25T04:33:50;19.00;99.90
12967;DHT22;6548;49.996;8.238;2022-08-25T04:36:17;19.00;99.90
12967;DHT22;6548;49.996;8.238;2022-08-25T04:38:44;18.90;99.90
12967;DHT22;6548;49.996;8.238;2022-08-25T04:41:12;18.90;99.90
12967;DHT22;6548;49.996;8.238;2022-08-25T04:43:39;18.90;99.90
12967;DHT22;6548;49.996;8.238;2022-08-25T04:46:17;19.60;99.90
12967;DHT22;6548;49.996;8.238;2022-08-25T04:48:43;19.00;99.90
12967;DHT22;6548;49.996;8.238;2022-08-25T04:51:11;19.20;99.90
12967;DHT22;6548;49.996;8.238;2022-08-25T04:53:39;19.00;99.90
12967;DHT22;6548;49.996;8.238;2022-08-25T04:56:11;19.00;99.90
12967;DHT22;6548;49.996;8.238;2022-08-25T04:58:37;19.10;99.90
12967;DHT22;6548;49.996;8.238;2022-08-25T05:01:11;19.20;99.90
12967;DHT22;6548;49.996;8.238;2022-08-25T05:03:40;19.30;99.90
12967;DHT22;6548;49.996;8.238;2022-08-25T05:06:05;19.40;99.90
12967;DHT22;6548;49.996;8.238;2022-08-25T05:08:32;19.60;99.90
12967;DHT22;6548;49.996;8.238;2022-08-25T05:10:57;19.90;99.90
12967;DHT22;6548;49.996;8.238;2022-08-25T05:13:24;20.00;99.90
12967;DHT22;6548;49.996;8.238;2022-08-25T05:15:55;20.60;99.90
12967;DHT22;6548;49.996;8.238;2022-08-25T05:18:23;20.30;99.90
12967;DHT22;6548;49.996;8.238;2022-08-25T05:20:51;20.30;99.90
12967;DHT22;6548;49.996;8.238;2022-08-25T05:23:22;20.40;99.90
12967;DHT22;6548;49.996;8.238;2022-08-25T05:25:49;20.40;99.90
12967;DHT22;6548;49.996;8.238;2022-08-25T05:28:16;21.20;99.90
12967;DHT22;6548;49.996;8.238;2022-08-25T05:30:42;20.60;99.90
12967;DHT22;6548;49.996;8.238;2022-08-25T05:33:10;21.10;99.90
12967;DHT22;6548;49.996;8.238;2022-08-25T05:35:36;20.80;99.90
12967;DHT22;6548;49.996;8.238;2022-08-25T05:38:03;20.80;99.90
12967;DHT22;6548;49.996;8.238;2022-08-25T05:40:29;21.00;99.90
12967;DHT22;6548;49.996;8.238;2022-08-25T05:42:55;21.00;99.90
12967;DHT22;6548;49.996;8.238;2022-08-25T05:45:21;21.10;99.90
12967;DHT22;6548;49.996;8.238;2022-08-25T05:47:47;21.10;99.90
12967;DHT22;6548;49.996;8.238;2022-08-25T05:50:13;21.20;99.90
12967;DHT22;6548;49.996;8.238;2022-08-25T05:52:39;21.20;99.90
12967;DHT22;6548;49.996;8.238;2022-08-25T05:55:05;21.40;99.90
12967;DHT22;6548;49.996;8.238;2022-08-25T05:57:32;21.40;99.90
12967;DHT22;6548;49.996;8.238;2022-08-25T05:59:57;21.50;99.90
12967;DHT22;6548;49.996;8.238;2022-08-25T06:02:23;21.50;99.90
12967;DHT22;6548;49.996;8.238;2022-08-25T06:05:16;21.60;99.90
12967;DHT22;6548;49.996;8.238;2022-08-25T06:07:43;21.70;99.90
12967;DHT22;6548;49.996;8.238;2022-08-25T06:10:10;23.40;99.90
12967;DHT22;6548;49.996;8.238;2022-08-25T06:12:36;23.00;99.90
12967;DHT22;6548;49.996;8.238;2022-08-25T06:15:03;22.90;99.90
12967;DHT22;6548;49.996;8.238;2022-08-25T06:17:29;23.30;99.90
12967;DHT22;6548;49.996;8.238;2022-08-25T06:19:55;25.30;99.90
12967;DHT22;6548;49.996;8.238;2022-08-25T06:22:21;24.80;99.90
12967;DHT22;6548;49.996;8.238;2022-08-25T06:24:47;24.60;99.90
12967;DHT22;6548;49.996;8.238;2022-08-25T06:27:13;25.10;99.90
12967;DHT22;6548;49.996;8.238;2022-08-25T06:29:38;25.80;99.90
12967;DHT22;6548;49.996;8.238;2022-08-25T06:32:04;26.10;99.90
12967;DHT22;6548;49.996;8.238;2022-08-25T06:34:30;25.00;99.90
12967;DHT22;6548;49.996;8.238;2022-08-25T06:36:56;25.90;99.90
12967;DHT22;6548;49.996;8.238;2022-08-25T06:39:21;25.10;99.90
12967;DHT22;6548;49.996;8.238;2022-08-25T06:41:52;26.00;99.90
12967;DHT22;6548;49.996;8.238;2022-08-25T06:44:19;26.40;99.90
12967;DHT22;6548;49.996;8.238;2022-08-25T06:46:45;26.10;99.90
12967;DHT22;6548;49.996;8.238;2022-08-25T06:49:11;25.90;99.90
12967;DHT22;6548;49.996;8.238;2022-08-25T06:51:36;25.30;99.90
12967;DHT22;6548;49.996;8.238;2022-08-25T06:54:04;26.00;99.90
12967;DHT22;6548;49.996;8.238;2022-08-25T06:56:30;25.90;99.90
12967;DHT22;6548;49.996;8.238;2022-08-25T06:58:55;25.60;99.90
12967;DHT22;6548;49.996;8.238;2022-08-25T07:01:23;25.40;99.90
12967;DHT22;6548;49.996;8.238;2022-08-25T07:03:55;26.80;99.90
12967;DHT22;6548;49.996;8.238;2022-08-25T07:06:22;25.40;99.90
12967;DHT22;6548;49.996;8.238;2022-08-25T07:08:48;25.40;99.90
12967;DHT22;6548;49.996;8.238;2022-08-25T07:11:15;25.60;99.90
12967;DHT22;6548;49.996;8.238;2022-08-25T07:13:41;26.10;99.90
12967;DHT22;6548;49.996;8.238;2022-08-25T07:16:07;26.60;99.90
12967;DHT22;6548;49.996;8.238;2022-08-25T07:18:34;26.80;99.90
12967;DHT22;6548;49.996;8.238;2022-08-25T07:20:59;26.70;99.90
12967;DHT22;6548;49.996;8.238;2022-08-25T07:23:26;27.50;99.90
12967;DHT22;6548;49.996;8.238;2022-08-25T07:25:52;27.50;99.90
12967;DHT22;6548;49.996;8.238;2022-08-25T07:28:20;27.30;99.90
12967;DHT22;6548;49.996;8.238;2022-08-25T07:30:46;27.90;99.90
12967;DHT22;6548;49.996;8.238;2022-08-25T07:33:11;27.30;99.90
12967;DHT22;6548;49.996;8.238;2022-08-25T07:35:37;27.50;99.90
12967;DHT22;6548;49.996;8.238;2022-08-25T07:38:05;27.40;99.90
12967;DHT22;6548;49.996;8.238;2022-08-25T07:40:33;27.30;99.90
12967;DHT22;6548;49.996;8.238;2022-08-25T07:43:02;27.00;99.90
12967;DHT22;6548;49.996;8.238;2022-08-25T07:45:30;26.80;99.90
12967;DHT22;6548;49.996;8.238;2022-08-25T07:48:02;26.70;99.90
12967;DHT22;6548;49.996;8.238;2022-08-25T07:50:29;26.50;99.90
12967;DHT22;6548;49.996;8.238;2022-08-25T07:52:56;26.50;99.90
12967;DHT22;6548;49.996;8.238;2022-08-25T07:55:23;27.80;99.90
12967;DHT22;6548;49.996;8.238;2022-08-25T07:57:49;28.00;99.90
12967;DHT22;6548;49.996;8.238;2022-08-25T08:00:16;27.10;99.90
12967;DHT22;6548;49.996;8.238;2022-08-25T08:02:42;26.80;99.90
12967;DHT22;6548;49.996;8.238;2022-08-25T08:05:09;27.00;99.90
12967;DHT22;6548;49.996;8.238;2022-08-25T08:07:35;27.10;99.90
12967;DHT22;6548;49.996;8.238;2022-08-25T08:10:00;27.30;99.90
12967;DHT22;6548;49.996;8.238;2022-08-25T08:12:27;27.60;99.90
12967;DHT22;6548;49.996;8.238;2022-08-25T08:14:53;27.80;99.90
12967;DHT22;6548;49.996;8.238;2022-08-25T08:17:18;27.60;99.90
12967;DHT22;6548;49.996;8.238;2022-08-25T08:19:44;27.90;99.90
12967;DHT22;6548;49.996;8.238;2022-08-25T08:22:11;28.70;99.90
12967;DHT22;6548;49.996;8.238;2022-08-25T08:24:39;29.00;99.90
12967;DHT22;6548;49.996;8.238;2022-08-25T08:27:06;29.10;99.90
12967;DHT22;6548;49.996;8.238;2022-08-25T08:29:33;28.40;99.90
12967;DHT22;6548;49.996;8.238;2022-08-25T08:31:59;28.40;99.90
12967;DHT22;6548;49.996;8.238;2022-08-25T08:34:25;27.70;99.90
12967;DHT22;6548;49.996;8.238;2022-08-25T08:36:51;28.80;99.90
12967;DHT22;6548;49.996;8.238;2022-08-25T08:39:17;29.40;99.90
12967;DHT22;6548;49.996;8.238;2022-08-25T08:52:31;29.10;99.90
12967;DHT22;6548;49.996;8.238;2022-08-25T08:55:02;29.10;99.90
12967;DHT22;6548;49.996;8.238;2022-08-25T08:57:34;29.30;99.90
12967;DHT22;6548;49.996;8.238;2022-08-25T09:00:05;30.10;99.90
12967;DHT22;6548;49.996;8.238;2022-08-25T09:02:36;29.30;99.90
12967;DHT22;6548;49.996;8.238;2022-08-25T09:05:08;29.30;99.90
12967;DHT22;6548;49.996;8.238;2022-08-25T09:07:40;28.50;99.90
12967;DHT22;6548;49.996;8.238;2022-08-25T09:10:09;29.20;99.90
12967;DHT22;6548;49.996;8.238;2022-08-25T09:12:56;29.30;99.90
12967;DHT22;6548;49.996;8.238;2022-08-25T09:15:39;29.30;99.90
12967;DHT22;6548;49.996;8.238;2022-08-25T09:21:34;29.00;99.90
12967;DHT22;6548;49.996;8.238;2022-08-25T09:27:17;29.50;99.90
12967;DHT22;6548;49.996;8.238;2022-08-25T09:30:08;29.80;99.90
12967;DHT22;6548;49.996;8.238;2022-08-25T09:32:40;29.00;99.90
12967;DHT22;6548;49.996;8.238;2022-08-25T09:35:16;30.30;99.90
12967;DHT22;6548;49.996;8.238;2022-08-25T09:37:51;28.60;99.90
12967;DHT22;6548;49.996;8.238;2022-08-25T09:40:18;29.40;99.90
12967;DHT22;6548;49.996;8.238;2022-08-25T09:42:46;30.40;99.90
12967;DHT22;6548;49.996;8.238;2022-08-25T09:45:13;30.40;99.90
12967;DHT22;6548;49.996;8.238;2022-08-25T09:47:44;31.20;99.90
12967;DHT22;6548;49.996;8.238;2022-08-25T09:50:18;30.60;99.90
12967;DHT22;6548;49.996;8.238;2022-08-25T09:52:45;29.90;99.90
12967;DHT22;6548;49.996;8.238;2022-08-25T09:57:53;31.60;99.90
12967;DHT22;6548;49.996;8.238;2022-08-25T10:03:16;32.50;99.90
12967;DHT22;6548;49.996;8.238;2022-08-25T10:11:12;32.40;99.90
12967;DHT22;6548;49.996;8.238;2022-08-25T10:13:44;32.80;99.90
12967;DHT22;6548;49.996;8.238;2022-08-25T10:16:29;33.40;99.90
12967;DHT22;6548;49.996;8.238;2022-08-25T10:21:40;31.60;99.90
12967;DHT22;6548;49.996;8.238;2022-08-25T10:24:08;31.70;99.90
12967;DHT22;6548;49.996;8.238;2022-08-25T10:26:46;31.10;99.90
12967;DHT22;6548;49.996;8.238;2022-08-25T10:41:08;32.30;99.90
12967;DHT22;6548;49.996;8.238;2022-08-25T10:43:56;32.00;99.90
12967;DHT22;6548;49.996;8.238;2022-08-25T10:46:48;32.50;99.90
12967;DHT22;6548;49.996;8.238;2022-08-25T10:49:37;33.50;99.90
12967;DHT22;6548;49.996;8.238;2022-08-25T10:54:49;34.60;99.90
12967;DHT22;6548;49.996;8.238;2022-08-25T11:00:16;32.70;99.90
12967;DHT22;6548;49.996;8.238;2022-08-25T11:08:21;32.80;99.90
12967;DHT22;6548;49.996;8.238;2022-08-25T11:11:12;31.50;99.90
12967;DHT22;6548;49.996;8.238;2022-08-25T11:13:56;31.60;99.90
12967;DHT22;6548;49.996;8.238;2022-08-25T11:16:37;31.30;99.90
12967;DHT22;6548;49.996;8.238;2022-08-25T11:19:17;31.50;99.90
12967;DHT22;6548;49.996;8.238;2022-08-25T11:21:55;30.70;99.90
12967;DHT22;6548;49.996;8.238;2022-08-25T11:27:03;29.70;99.90
12967;DHT22;6548;49.996;8.238;2022-08-25T11:29:32;30.10;99.90
12967;DHT22;6548;49.996;8.238;2022-08-25T11:32:01;30.10;99.90
12967;DHT22;6548;49.996;8.238;2022-08-25T11:34:31;30.90;99.90
12967;DHT22;6548;49.996;8.238;2022-08-25T11:37:04;30.90;99.90
12967;DHT22;6548;49.996;8.238;2022-08-25T11:42:47;31.90;99.90
12967;DHT22;6548;49.996;8.238;2022-08-25T11:45:43;32.70;99.90
12967;DHT22;6548;49.996;8.238;2022-08-25T11:49:06;32.40;99.90
12967;DHT22;6548;49.996;8.238;2022-08-25T11:51:08;33.20;99.90
12967;DHT22;6548;49.996;8.238;2022-08-25T11:53:36;33.80;99.90
12967;DHT22;6548;49.996;8.238;2022-08-25T11:56:09;32.80;99.90
12967;DHT22;6548;49.996;8.238;2022-08-25T11:58:54;31.00;99.90
12967;DHT22;6548;49.996;8.238;2022-08-25T12:04:34;31.70;99.90
12967;DHT22;6548;49.996;8.238;2022-08-25T12:12:39;33.20;99.90
12967;DHT22;6548;49.996;8.238;2022-08-25T12:15:21;33.00;99.90
12967;DHT22;6548;49.996;8.238;2022-08-25T12:25:59;31.40;99.90
12967;DHT22;6548;49.996;8.238;2022-08-25T12:28:47;32.40;99.90
12967;DHT22;6548;49.996;8.238;2022-08-25T12:34:01;33.70;99.90
12967;DHT22;6548;49.996;8.238;2022-08-25T12:36:33;33.20;99.90
12967;DHT22;6548;49.996;8.238;2022-08-25T12:39:29;34.50;99.90
12967;DHT22;6548;49.996;8.238;2022-08-25T12:41:58;33.30;99.90
12967;DHT22;6548;49.996;8.238;2022-08-25T12:47:29;34.40;99.90
12967;DHT22;6548;49.996;8.238;2022-08-25T12:53:15;33.40;99.90
12967;DHT22;6548;49.996;8.238;2022-08-25T12:55:50;32.20;99.90
12967;DHT22;6548;49.996;8.238;2022-08-25T12:58:16;32.30;99.90
12967;DHT22;6548;49.996;8.238;2022-08-25T13:01:15;33.00;99.90
12967;DHT22;6548;49.996;8.238;2022-08-25T13:10:12;33.80;99.90
12967;DHT22;6548;49.996;8.238;2022-08-25T13:12:39;35.60;99.90
12967;DHT22;6548;49.996;8.238;2022-08-25T13:15:15;35.00;99.90
12967;DHT22;6548;49.996;8.238;2022-08-25T13:17:49;36.10;99.90
12967;DHT22;6548;49.996;8.238;2022-08-25T13:20:24;36.70;99.90
12967;DHT22;6548;49.996;8.238;2022-08-25T13:22:52;35.70;99.90
12967;DHT22;6548;49.996;8.238;2022-08-25T13:25:23;35.40;99.90
12967;DHT22;6548;49.996;8.238;2022-08-25T13:27:54;35.70;99.90
12967;DHT22;6548;49.996;8.238;2022-08-25T13:30:38;36.00;99.90
12967;DHT22;6548;49.996;8.238;2022-08-25T13:33:20;35.50;99.90
12967;DHT22;6548;49.996;8.238;2022-08-25T13:35:53;34.10;99.90
12967;DHT22;6548;49.996;8.238;2022-08-25T13:38:37;32.90;99.90
12967;DHT22;6548;49.996;8.238;2022-08-25T13:41:04;32.60;99.90
12967;DHT22;6548;49.996;8.238;2022-08-25T13:43:30;32.70;99.90
12967;DHT22;6548;49.996;8.238;2022-08-25T13:45:56;32.00;99.90
12967;DHT22;6548;49.996;8.238;2022-08-25T13:48:39;32.00;99.90
12967;DHT22;6548;49.996;8.238;2022-08-25T13:51:21;32.60;99.90
12967;DHT22;6548;49.996;8.238;2022-08-25T13:54:07;32.30;99.90
12967;DHT22;6548;49.996;8.238;2022-08-25T13:56:36;32.60;99.90
12967;DHT22;6548;49.996;8.238;2022-08-25T13:59:04;32.90;99.90
12967;DHT22;6548;49.996;8.238;2022-08-25T14:01:43;33.00;99.90
12967;DHT22;6548;49.996;8.238;2022-08-25T14:12:44;34.30;99.90
12967;DHT22;6548;49.996;8.238;2022-08-25T14:17:45;33.20;99.90
12967;DHT22;6548;49.996;8.238;2022-08-25T14:20:23;32.60;99.90
12967;DHT22;6548;49.996;8.238;2022-08-25T14:22:56;32.20;99.90
12967;DHT22;6548;49.996;8.238;2022-08-25T14:25:23;32.40;99.90
12967;DHT22;6548;49.996;8.238;2022-08-25T14:27:57;32.60;99.90
12967;DHT22;6548;49.996;8.238;2022-08-25T14:30:23;34.70;99.90
12967;DHT22;6548;49.996;8.238;2022-08-25T14:32:49;33.40;99.90
12967;DHT22;6548;49.996;8.238;2022-08-25T14:35:15;33.60;99.90
12967;DHT22;6548;49.996;8.238;2022-08-25T14:37:43;32.80;99.90
12967;DHT22;6548;49.996;8.238;2022-08-25T14:40:10;32.00;99.90
12967;DHT22;6548;49.996;8.238;2022-08-25T14:42:38;32.30;99.90
12967;DHT22;6548;49.996;8.238;2022-08-25T14:45:04;33.10;99.90
12967;DHT22;6548;49.996;8.238;2022-08-25T14:47:30;33.20;99.90
12967;DHT22;6548;49.996;8.238;2022-08-25T14:49:56;33.70;99.90
12967;DHT22;6548;49.996;8.238;2022-08-25T14:52:28;34.80;99.90
12967;DHT22;6548;49.996;8.238;2022-08-25T14:54:55;36.40;98.70
12967;DHT22;6548;49.996;8.238;2022-08-25T14:57:22;35.90;97.20
12967;DHT22;6548;49.996;8.238;2022-08-25T14:59:48;35.70;96.90
12967;DHT22;6548;49.996;8.238;2022-08-25T15:02:15;35.90;97.20
12967;DHT22;6548;49.996;8.238;2022-08-25T15:04:50;36.40;96.00
12967;DHT22;6548;49.996;8.238;2022-08-25T15:07:16;36.90;96.10
12967;DHT22;6548;49.996;8.238;2022-08-25T15:10:01;36.80;95.30
12967;DHT22;6548;49.996;8.238;2022-08-25T15:12:26;37.00;94.70
12967;DHT22;6548;49.996;8.238;2022-08-25T15:14:52;37.70;93.80
12967;DHT22;6548;49.996;8.238;2022-08-25T15:17:17;37.60;93.40
12967;DHT22;6548;49.996;8.238;2022-08-25T15:19:43;36.40;93.40
12967;DHT22;6548;49.996;8.238;2022-08-25T15:22:09;35.70;94.20
12967;DHT22;6548;49.996;8.238;2022-08-25T15:24:34;34.90;95.10
12967;DHT22;6548;49.996;8.238;2022-08-25T15:27:02;35.30;95.00
12967;DHT22;6548;49.996;8.238;2022-08-25T15:29:31;36.00;95.10
12967;DHT22;6548;49.996;8.238;2022-08-25T15:32:00;36.70;94.00
12967;DHT22;6548;49.996;8.238;2022-08-25T15:34:26;37.90;93.30
12967;DHT22;6548;49.996;8.238;2022-08-25T15:36:52;36.20;93.40
12967;DHT22;6548;49.996;8.238;2022-08-25T15:39:18;35.10;93.90
12967;DHT22;6548;49.996;8.238;2022-08-25T15:41:45;35.40;94.10
12967;DHT22;6548;49.996;8.238;2022-08-25T15:44:13;34.10;94.70
12967;DHT22;6548;49.996;8.238;2022-08-25T15:46:39;34.40;95.10
12967;DHT22;6548;49.996;8.238;2022-08-25T15:49:05;35.50;94.30
12967;DHT22;6548;49.996;8.238;2022-08-25T15:51:31;34.40;94.60
12967;DHT22;6548;49.996;8.238;2022-08-25T15:53:57;34.10;95.20
12967;DHT22;6548;49.996;8.238;2022-08-25T15:56:23;34.80;94.60
12967;DHT22;6548;49.996;8.238;2022-08-25T15:58:49;35.10;94.50
12967;DHT22;6548;49.996;8.238;2022-08-25T16:01:17;36.00;93.60
12967;DHT22;6548;49.996;8.238;2022-08-25T16:03:43;36.40;92.90
12967;DHT22;6548;49.996;8.238;2022-08-25T16:06:09;37.00;92.40
12967;DHT22;6548;49.996;8.238;2022-08-25T16:08:35;36.60;92.20
12967;DHT22;6548;49.996;8.238;2022-08-25T16:11:02;35.20;93.40
12967;DHT22;6548;49.996;8.238;2022-08-25T16:13:27;35.20;93.50
12967;DHT22;6548;49.996;8.238;2022-08-25T16:15:53;33.80;94.40
12967;DHT22;6548;49.996;8.238;2022-08-25T16:18:19;33.40;95.40
12967;DHT22;6548;49.996;8.238;2022-08-25T16:20:46;34.10;95.00
12967;DHT22;6548;49.996;8.238;2022-08-25T16:23:13;35.00;94.50
12967;DHT22;6548;49.996;8.238;2022-08-25T16:25:41;35.50;93.90
12967;DHT22;6548;49.996;8.238;2022-08-25T16:28:09;34.90;93.90
12967;DHT22;6548;49.996;8.238;2022-08-25T16:30:36;33.80;94.90
12967;DHT22;6548;49.996;8.238;2022-08-25T16:33:05;34.10;95.10
12967;DHT22;6548;49.996;8.238;2022-08-25T16:35:31;34.50;94.60
12967;DHT22;6548;49.996;8.238;2022-08-25T16:37:57;35.40;93.80
12967;DHT22;6548;49.996;8.238;2022-08-25T16:40:22;35.60;93.50
12967;DHT22;6548;49.996;8.238;2022-08-25T16:42:51;34.90;93.80
12967;DHT22;6548;49.996;8.238;2022-08-25T16:45:17;35.30;93.90
12967;DHT22;6548;49.996;8.238;2022-08-25T16:47:43;35.90;93.30
12967;DHT22;6548;49.996;8.238;2022-08-25T16:50:09;35.50;93.10
12967;DHT22;6548;49.996;8.238;2022-08-25T16:52:35;34.70;93.60
12967;DHT22;6548;49.996;8.238;2022-08-25T16:55:20;33.40;94.90
12967;DHT22;6548;49.996;8.238;2022-08-25T16:57:51;33.00;95.30
12967;DHT22;6548;49.996;8.238;2022-08-25T17:00:21;32.90;95.90
12967;DHT22;6548;49.996;8.238;2022-08-25T17:02:48;33.60;95.60
12967;DHT22;6548;49.996;8.238;2022-08-25T17:05:17;33.20;95.50
12967;DHT22;6548;49.996;8.238;2022-08-25T17:07:43;32.60;96.20
12967;DHT22;6548;49.996;8.238;2022-08-25T17:10:28;32.90;96.20
12967;DHT22;6548;49.996;8.238;2022-08-25T17:12:54;33.30;95.80
12967;DHT22;6548;49.996;8.238;2022-08-25T17:15:19;33.10;96.00
12967;DHT22;6548;49.996;8.238;2022-08-25T17:17:48;32.80;96.00
12967;DHT22;6548;49.996;8.238;2022-08-25T17:20:13;32.70;96.30
12967;DHT22;6548;49.996;8.238;2022-08-25T17:22:41;32.70;96.20
12967;DHT22;6548;49.996;8.238;2022-08-25T17:25:08;32.50;96.50
12967;DHT22;6548;49.996;8.238;2022-08-25T17:27:34;32.60;96.60
12967;DHT22;6548;49.996;8.238;2022-08-25T17:30:00;32.50;96.70
12967;DHT22;6548;49.996;8.238;2022-08-25T17:32:25;32.20;97.20
12967;DHT22;6548;49.996;8.238;2022-08-25T17:34:51;31.80;97.80
12967;DHT22;6548;49.996;8.238;2022-08-25T17:37:16;31.90;98.60
12967;DHT22;6548;49.996;8.238;2022-08-25T17:39:42;30.90;99.80
12967;DHT22;6548;49.996;8.238;2022-08-25T17:42:07;30.50;99.90
12967;DHT22;6548;49.996;8.238;2022-08-25T17:44:33;30.40;99.90